This demonstration page uses our WeatherBlox Daily Observations layout. Learn more.

39.01783, -85.05884

Hourly Observations for August 12, 2020

Temp ( °F °C ) Dew Point ( °F °C ) Humidity (%) Winds ( mph kmh ) Pressure ( in mb ) Visibility ( mi km ) Precip ( " mm )
12:52 am 00:52 Mostly Cloudy 71 21.7 67 19.4 87 87 Calm 30 1016 10 16.0934 0 0
1:52 am 01:52 Partly Cloudy 74 23.3 68 20 82 82 N 5 7 30 1016 10 16.0934 0 0
2:52 am 02:52 Mostly Clear 73 22.8 68 20 84 84 Calm 30 1016 10 16.0934 0 0
3:52 am 03:52 Partly Cloudy 72 22.2 67 19.4 84 84 Calm 30 1016 10 16.0934 0 0
4:52 am 04:52 Cloudy 71 21.7 68 20 90 90 NNW 6 9 30.01 1016 10 16.0934 0 0
5:52 am 05:52 Mostly Cloudy 71 21.7 68 20 90 90 Calm 30.02 1017 10 16.0934 0 0
6:52 am 06:52 Mostly Cloudy with Patchy Fog 70 21.1 67 19.4 90 90 N 3 6 30.03 1017 6 9.65604 0 0
7:52 am 07:52 Mostly Cloudy 71 21.7 68 20 90 90 NNE 5 7 30.04 1017 8 12.87472 0 0
8:52 am 08:52 Mostly Cloudy 74 23.3 68 20 82 82 NNE 6 9 30.05 1018 10 16.0934 0 0
9:52 am 09:52 Mostly Cloudy 78 25.6 69 20.6 74 74 ENE 3 6 30.06 1018 10 16.0934 0 0
10:52 am 10:52 Cloudy 81 27.2 70 21.1 69 69 NE 3 6 30.06 1018 10 16.0934 0 0
11:52 am 11:52 Cloudy 81 27.2 69 20.6 67 67 N 5 7 30.05 1018 10 16.0934 0 0
12:52 pm 12:52 Cloudy 83 28.3 68 20 61 61 VRB 3 6 30.04 1017 10 16.0934 0 0
1:52 pm 13:52 Cloudy 83 28.3 67 19.4 59 59 VRB 3 6 30.04 1017 10 16.0934 0 0
2:52 pm 14:52 Cloudy 83 28.3 68 20 61 61 ENE 8 13 30.03 1017 10 16.0934 0 0
3:52 pm 15:52 Cloudy 85 29.4 67 19.4 55 55 VRB 3 6 30.01 1016 10 16.0934 0 0
4:52 pm 16:52 Mostly Cloudy 85 29.4 66 18.9 53 53 Calm 30.01 1016 10 16.0934 0 0
5:52 pm 17:52 Mostly Cloudy 85 29.4 68 20 57 57 NNW 10 17 30 1016 10 16.0934 0 0
6:52 pm 18:52 Mostly Cloudy 83 28.3 69 20.6 63 63 NNW 9 15 30 1016 10 16.0934 0 0
7:52 pm 19:52 Mostly Cloudy 82 27.8 69 20.6 65 65 NNW 8 13 30.01 1016 10 16.0934 0 0
8:52 pm 20:52 Mostly Cloudy 80 26.7 68 20 67 67 NNW 7 11 30.02 1017 10 16.0934 0 0
9:52 pm 21:52 Mostly Cloudy 80 26.7 67 19.4 64 64 NNE 9 15 30.02 1017 10 16.0934 0 0
10:52 pm 22:52 Cloudy 79 26.1 66 18.9 65 65 NNE 8 13 30.03 1017 10 16.0934 0 0
11:52 pm 23:52 Mostly Cloudy 77 25 66 18.9 69 69 N 7 11 30.03 1017 10 16.0934 0 0

Powered by AerisWeather